Relevés horaires Semmerzake (Belgique)


Relevés horaires à Semmerzake - Samedi 24 Juill. 2021
Heure UTC1 Température [°C] Vent [km/h] Hum. [%] Pres.4 [hPa] Visi. [Km] Nébu. [octa] Préc.5 [mm] Cond.
2m. Res. Ros. Dir.2 Vit. Moy. Raf.3
23:00 18.0 18.0 16.3 S 3.7 -- 9.3 90 1008(-0.5/3h) 11 -- -- --
22:00 18.5 18.5 16.5 SSO 7.4 -- 11.1 88 1008.6(0.3/3h) 13 -- -- --
21:00 18.4 18.4 16.7 S 3.7 -- 7.4 90 1008.6(0.0/3h) 16 -- -- NA
20:00 19.2 19.2 16.9 E 3.7 -- 7.4 87 1008.5(0.8/3h) 10 -- -- --
19:00 19.6 19.6 17.3 NNO 3.7 -- 5.6 87 1008.2(-0.3/3h) 5 -- -- --
18:00 19.7 19.7 17.4 NNO 1.9 -- 16.7 87 1008.6(0.2/3h) 4.9 -- 0.3/12h
NA
17:00 20.3 20.3 17.0 N 5.6 -- 9.3 81 1007.6(-0.5/3h) 6 -- -- Il y a de la pluie faible et continue à la station au moment de l'observation
16:00 22.4 22.4 17.6 SO 3.7 -- 13.0 74 1008.5(0.4/3h) 17 -- -- NA
15:00 22.3 22.3 17.0 SSO 9.3 -- 16.7 72 1008.2(0.0/3h) 17 -- -- NA
14:00 24.6 24.6 16.5 S 3.7 -- 9.3 61 1008.1(-0.1/3h) 19 -- -- --
13:00 24.3 24.3 17.1 ESE 3.7 -- 7.4 64 1008(0.0/3h) 20 -- -- --
12:00 22.4 22.4 16.2 SSE 3.7 -- 9.3 68 1008.2(0.2/3h) 16 -- -- --
11:00 21.1 21.1 15.3 SSO 5.6 -- 9.3 69 1008.2(0.4/3h) 19 -- -- --
10:00 20.3 20.3 15.6 S 5.6 -- 7.4 74 1008.1(0.2/3h) 14 -- -- --
09:00 18.8 18.8 15.3 NNO 1.9 -- 7.4 80 1008(0.0/3h) 13 -- -- --
08:00 18.0 18.0 14.8 NNO 1.9 -- 7.4 82 1008(-0.4/3h) 15 -- -- --
07:00 17.0 17.0 14.5 NE 3.7 -- 7.4 85 1007.7(-0.6/3h) 11 -- -- --
06:00 16.7 16.7 14.1 NNO 1.9 -- 13.0 85 1008.1(-0.9/3h) 14 -- -- --
05:00 16.7 16.7 13.8 E 5.6 -- 9.3 83 1008.3(-1.7/3h) 14 -- -- --
04:00 16.7 16.7 13.8 E 3.7 -- 11.1 83 1008.6(-1.2/3h) 13 -- -- --
03:00 16.6 16.6 13.8 ENE 5.6 -- 13.0 84 1009.1(-2.4/3h) 13 -- -- --
02:00 16.7 16.7 13.6 NNO 1.9 -- 13.0 82 1010.2(-2.0/3h) 15 -- -- --
01:00 17.7 17.7 13.9 ENE 5.6 -- 11.1 78 1009.7(-2.0/3h) 16 -- -- --
00:00 17.9 17.9 13.9 NE 5.6 -- 11.1 77 1011.3(-0.6/3h) 19 -- -- --

1 Coordinated Universal Time. Actuellement il est 22:00 locale et 20:00 UTC.

2 Le vent souffle depuis la direction indiquée vers la direction oposée.

3 Les rafales max. sont disponible 40 min après l'heure du relevé.

4 Pour les stations d'altitude (plus de 600m) le géopotentiel du niveau le plus proche de la pression obligatoire est indiqué.

5 Les stations disposant d'un diffuseur peuvent indiquer "trace". Cela signifie que des précipitations ont touchés le sol mais que la quantité est inférieure à 0.1 mm.

Récapitulatif de la journée
Température [°C] Vent [km/h] Ensoleillement4 [h] Precipitations totale5 [mm] Pression [Hpa]
Min1 Max.2 Moy.3 Max. Min Max.
16.2 25.3 0 16.7 0 h 0 min 0 1007.6 1011.3

1 Température minimale relevée entre 18:00 UTC la veille et 18:00 UTC le jour donné.

2 Température maximale relevée entre 06:00 UTC le jour donné et 06:00 UTC le lendemain.

3 Vent moyen de la journée basé sur les relevés horaires.

4 Ensoleillement en heures relevé entre 06:00 UTC la veille et 06:00 UTC le jour donné.

5 Précipitations totales tombées entre 06:00 UTC la jour donné et 06:00 UTC le lendemain.

Graphiques horaires